Time;durP1;ratioP1;P1;durP2;ratioP2;P2;SDS_P1;SDS_P2;PMS_P1;PMS_P2;Temp;Humidity;BMP_temperature;BMP_pressure;BME280_temperature;BME280_humidity;BME280_pressure;Samples;Min_cycle;Max_cycle;Signal;HPM_P1;HPM_P2
2021/12/08 00:00:57;;;;;;;1.50;0.70;;;9.50;99.90;;;;;;5030733;28;20275;-25
2021/12/08 00:03:28;;;;;;;1.33;0.70;;;9.40;99.90;;;;;;5016832;28;20205;-25
2021/12/08 00:06:00;;;;;;;1.23;0.80;;;9.40;99.90;;;;;;5011722;28;20312;-25
2021/12/08 00:08:33;;;;;;;1.63;0.90;;;9.40;99.90;;;;;;5009704;28;20197;-25
2021/12/08 00:13:35;;;;;;;3.03;1.00;;;9.40;99.90;;;;;;5010195;28;20210;-25
2021/12/08 00:16:09;;;;;;;1.80;0.87;;;9.40;99.90;;;;;;5011581;28;20252;-25
2021/12/08 00:18:37;;;;;;;1.17;0.80;;;9.40;99.90;;;;;;5019297;28;20655;-25
2021/12/08 00:21:08;;;;;;;3.70;1.10;;;9.40;99.90;;;;;;5031332;28;20209;-25
2021/12/08 00:23:37;;;;;;;2.23;1.00;;;9.40;99.90;;;;;;5015077;28;20296;-24
2021/12/08 00:26:06;;;;;;;2.53;1.03;;;9.40;99.90;;;;;;5011345;28;20201;-25
2021/12/08 00:28:34;;;;;;;2.20;1.10;;;9.40;99.90;;;;;;5010420;28;20316;-24
2021/12/08 00:31:05;;;;;;;2.43;1.20;;;9.40;99.90;;;;;;5011341;28;20208;-24
2021/12/08 00:33:36;;;;;;;4.77;1.10;;;9.40;99.90;;;;;;5010967;28;20229;-25
2021/12/08 00:36:14;;;;;;;3.53;1.00;;;9.40;99.90;;;;;;5015499;28;20597;-25
2021/12/08 00:38:42;;;;;;;2.27;1.00;;;9.40;99.90;;;;;;5030464;28;20638;-25
2021/12/08 00:41:12;;;;;;;3.10;1.00;;;9.40;99.90;;;;;;5031468;28;20510;-25
2021/12/08 00:43:42;;;;;;;4.57;1.20;;;9.40;99.90;;;;;;5014195;28;20706;-24
2021/12/08 00:46:12;;;;;;;4.07;1.27;;;9.40;99.90;;;;;;5011715;28;20777;-25
2021/12/08 00:48:41;;;;;;;7.83;1.40;;;9.40;99.90;;;;;;5009567;28;20213;-25
2021/12/08 00:51:08;;;;;;;5.03;1.37;;;9.40;99.90;;;;;;5012846;28;20276;-25
2021/12/08 00:53:35;;;;;;;7.33;1.20;;;9.40;99.90;;;;;;5010966;28;20207;-25
2021/12/08 00:56:04;;;;;;;4.90;1.30;;;9.40;99.90;;;;;;5010834;28;20212;-25
2021/12/08 00:58:31;;;;;;;6.33;1.50;;;9.40;99.90;;;;;;5009844;28;20726;-24
2021/12/08 01:00:59;;;;;;;5.00;1.30;;;9.40;99.90;;;;;;5010653;28;20311;-25
2021/12/08 01:03:29;;;;;;;7.43;1.57;;;9.40;99.90;;;;;;5011121;28;20271;-25
2021/12/08 01:05:57;;;;;;;8.13;2.00;;;9.40;99.90;;;;;;5010654;28;20194;-25
2021/12/08 01:08:29;;;;;;;5.77;1.70;;;9.40;99.90;;;;;;5010176;28;20209;-24
2021/12/08 01:11:03;;;;;;;6.00;1.70;;;9.40;99.90;;;;;;5029194;28;20215;-25
2021/12/08 01:13:30;;;;;;;6.00;1.57;;;9.40;99.90;;;;;;5027295;28;20586;-25
2021/12/08 01:16:00;;;;;;;5.93;1.70;;;9.40;99.90;;;;;;5030172;28;20209;-24
2021/12/08 01:18:30;;;;;;;6.73;1.60;;;9.40;99.90;;;;;;5012147;28;20239;-25
2021/12/08 01:21:08;;;;;;;5.30;1.60;;;9.40;99.90;;;;;;5030268;28;20208;-24
2021/12/08 01:23:39;;;;;;;5.43;1.47;;;9.40;99.90;;;;;;5016347;28;20236;-25
2021/12/08 01:26:11;;;;;;;6.73;1.53;;;9.40;99.90;;;;;;5010918;28;20276;-25
2021/12/08 01:28:38;;;;;;;6.20;1.63;;;9.40;99.90;;;;;;5009443;28;20312;-25
2021/12/08 01:31:06;;;;;;;5.63;1.53;;;9.40;99.90;;;;;;5010627;28;20198;-24
2021/12/08 01:33:36;;;;;;;5.13;1.67;;;9.40;99.90;;;;;;5009839;28;20224;-25
2021/12/08 01:36:06;;;;;;;10.20;1.80;;;9.40;99.90;;;;;;5010066;28;20275;-25
2021/12/08 01:38:34;;;;;;;5.73;1.53;;;9.40;99.90;;;;;;5008064;28;20804;-25
2021/12/08 01:41:03;;;;;;;2.77;1.27;;;9.50;99.90;;;;;;4992307;28;20202;-25
2021/12/08 01:43:41;;;;;;;7.70;2.00;;;9.40;99.90;;;;;;5008928;28;20563;-25
2021/12/08 01:46:11;;;;;;;6.70;1.43;;;9.40;99.90;;;;;;5011797;28;20197;-25
2021/12/08 01:48:42;;;;;;;5.40;1.40;;;9.40;99.90;;;;;;5009363;28;20206;-25
2021/12/08 01:51:15;;;;;;;3.53;1.40;;;9.40;99.90;;;;;;5009605;28;20259;-25
2021/12/08 01:54:02;;;;;;;5.07;1.43;;;9.40;99.90;;;;;;5023361;28;20223;-25
2021/12/08 01:56:34;;;;;;;7.50;1.40;;;9.40;99.90;;;;;;5028028;28;20611;-25
2021/12/08 01:59:04;;;;;;;5.57;1.40;;;9.40;99.90;;;;;;5016592;28;20233;-24
2021/12/08 02:01:36;;;;;;;6.33;1.90;;;9.40;99.90;;;;;;5018192;28;20216;-23
2021/12/08 02:04:06;;;;;;;5.53;1.80;;;9.40;99.90;;;;;;5027027;28;20205;-23
2021/12/08 02:06:39;;;;;;;3.73;1.30;;;9.40;99.90;;;;;;5029448;28;20201;-23
2021/12/08 02:09:10;;;;;;;5.13;1.40;;;9.30;99.90;;;;;;5034789;28;20208;-23
2021/12/08 02:11:39;;;;;;;4.33;1.30;;;9.30;99.90;;;;;;5028640;28;20802;-23
2021/12/08 02:14:07;;;;;;;3.83;1.37;;;9.30;99.90;;;;;;5023461;28;20307;-23
2021/12/08 02:16:34;;;;;;;4.30;1.07;;;9.30;99.90;;;;;;5029263;28;20363;-23
2021/12/08 02:19:03;;;;;;;5.37;1.90;;;9.20;99.90;;;;;;5028450;28;20651;-23
2021/12/08 02:21:39;;;;;;;6.07;2.20;;;9.20;99.90;;;;;;5028976;28;20243;-23
2021/12/08 02:24:11;;;;;;;5.63;1.40;;;9.20;99.90;;;;;;5024833;28;20204;-23
2021/12/08 02:26:45;;;;;;;8.30;1.80;;;9.20;99.90;;;;;;5027181;28;20683;-23
2021/12/08 02:29:20;;;;;;;5.10;1.47;;;9.20;99.90;;;;;;5042923;28;20593;-23
2021/12/08 02:48:33;;;;;;;2.80;1.03;;;9.20;99.90;;;;;;5028102;28;20221;-23
2021/12/08 02:51:04;;;;;;;8.37;1.60;;;9.10;99.90;;;;;;5025404;28;20244;-23
2021/12/08 02:53:33;;;;;;;5.33;1.47;;;9.10;99.90;;;;;;5016105;28;20201;-23
2021/12/08 02:56:04;;;;;;;4.20;1.47;;;9.10;99.90;;;;;;5028710;28;20213;-24
2021/12/08 02:58:33;;;;;;;4.90;1.60;;;9.10;99.90;;;;;;5027339;28;20224;-23
2021/12/08 03:01:04;;;;;;;4.97;1.40;;;9.10;99.90;;;;;;5028397;28;20671;-23
2021/12/08 03:03:32;;;;;;;6.30;1.50;;;9.10;99.90;;;;;;5018184;28;20308;-23
2021/12/08 03:06:00;;;;;;;4.37;1.13;;;9.00;99.90;;;;;;5008500;28;20201;-23
2021/12/08 03:08:27;;;;;;;5.20;1.63;;;9.00;99.90;;;;;;5008559;28;20209;-23
2021/12/08 03:10:55;;;;;;;3.63;1.07;;;9.00;99.90;;;;;;5008778;28;20311;-24
2021/12/08 03:13:38;;;;;;;6.50;1.40;;;8.90;99.90;;;;;;5013606;28;20292;-23
2021/12/08 03:16:07;;;;;;;7.40;1.40;;;8.90;99.90;;;;;;5028143;28;20296;-24
2021/12/08 03:18:38;;;;;;;6.37;1.43;;;8.90;99.90;;;;;;5027364;28;20314;-24
2021/12/08 03:21:10;;;;;;;8.03;1.47;;;8.80;99.90;;;;;;5028000;28;20288;-23
2021/12/08 03:23:54;;;;;;;3.87;1.40;;;8.70;99.90;;;;;;5028989;28;20204;-23
2021/12/08 03:26:28;;;;;;;4.07;1.23;;;8.80;99.90;;;;;;5014153;28;20213;-23
2021/12/08 03:29:04;;;;;;;5.13;1.30;;;8.70;99.90;;;;;;5007334;28;20309;-23
2021/12/08 03:31:40;;;;;;;6.03;1.20;;;8.70;99.90;;;;;;5008191;28;20220;-23
2021/12/08 03:34:08;;;;;;;6.53;1.33;;;8.70;99.90;;;;;;5014076;28;20572;-24
2021/12/08 03:36:35;;;;;;;5.47;1.20;;;8.70;99.90;;;;;;5014516;28;20319;-24
2021/12/08 03:39:06;;;;;;;6.17;1.23;;;8.60;99.90;;;;;;5026958;28;20240;-23
2021/12/08 03:41:35;;;;;;;7.93;1.80;;;8.60;99.90;;;;;;5027985;28;20197;-24
2021/12/08 03:44:04;;;;;;;6.20;1.50;;;8.60;99.90;;;;;;5017327;28;20300;-23
2021/12/08 03:46:39;;;;;;;9.10;1.77;;;8.60;99.90;;;;;;5008017;28;20759;-24
2021/12/08 03:49:14;;;;;;;6.40;1.60;;;8.60;99.90;;;;;;5007980;28;20260;-24
2021/12/08 03:51:42;;;;;;;10.47;1.50;;;8.50;99.90;;;;;;5007864;28;20603;-24
2021/12/08 03:54:11;;;;;;;8.37;1.30;;;8.50;99.90;;;;;;5012801;28;20686;-24
2021/12/08 03:56:40;;;;;;;6.43;1.40;;;8.50;99.90;;;;;;5027928;28;20204;-24
2021/12/08 03:59:08;;;;;;;7.23;1.80;;;8.50;99.90;;;;;;5022873;28;20237;-24
2021/12/08 04:01:42;;;;;;;7.97;1.83;;;8.40;99.90;;;;;;5007909;28;20261;-24
2021/12/08 04:04:15;;;;;;;5.77;1.50;;;8.40;99.90;;;;;;5015159;28;20200;-23
2021/12/08 04:06:49;;;;;;;11.47;1.53;;;8.40;99.90;;;;;;5027247;28;20205;-24
2021/12/08 04:09:37;;;;;;;5.57;1.33;;;8.40;99.90;;;;;;5027499;28;20725;-24
2021/12/08 04:12:06;;;;;;;5.53;1.63;;;8.30;99.90;;;;;;5027312;28;20319;-24
2021/12/08 04:14:38;;;;;;;6.97;1.70;;;8.30;99.90;;;;;;5015862;28;20210;-24
2021/12/08 04:17:13;;;;;;;6.50;1.63;;;8.30;99.90;;;;;;5019053;28;20308;-24
2021/12/08 04:19:44;;;;;;;10.40;2.10;;;8.30;99.90;;;;;;5027469;28;20224;-25
2021/12/08 04:22:20;;;;;;;7.90;1.80;;;8.30;99.90;;;;;;5027056;28;20212;-25
2021/12/08 04:24:50;;;;;;;8.63;2.30;;;8.30;99.90;;;;;;5015741;28;20642;-25
2021/12/08 04:27:22;;;;;;;7.47;1.77;;;8.20;99.90;;;;;;5015023;28;20200;-25
2021/12/08 04:29:49;;;;;;;6.87;1.90;;;8.20;99.90;;;;;;5026716;28;20199;-25
2021/12/08 04:32:20;;;;;;;6.77;1.57;;;8.20;99.90;;;;;;5027524;28;20201;-24
2021/12/08 04:34:54;;;;;;;9.40;1.80;;;8.20;99.90;;;;;;5015117;28;20251;-24
2021/12/08 04:37:29;;;;;;;12.13;1.77;;;8.20;99.90;;;;;;5009239;28;20221;-24
2021/12/08 04:42:56;;;;;;;10.90;1.90;;;8.20;99.90;;;;;;5011057;28;20209;-24
2021/12/08 04:45:34;;;;;;;7.30;1.70;;;8.10;99.90;;;;;;5010861;28;20240;-24
2021/12/08 05:10:14;;;;;;;8.17;1.43;;;7.90;99.90;;;;;;5010700;28;20208;-24
2021/12/08 05:12:44;;;;;;;6.03;1.20;;;7.90;99.90;;;;;;5010319;28;20739;-24
2021/12/08 05:15:21;;;;;;;10.80;1.90;;;7.90;99.90;;;;;;5010160;28;20220;-24
2021/12/08 05:17:58;;;;;;;6.90;1.17;;;7.80;99.90;;;;;;5010630;28;20257;-24
2021/12/08 05:20:39;;;;;;;8.30;1.73;;;7.90;99.90;;;;;;5008989;28;20220;-24
2021/12/08 05:23:18;;;;;;;8.97;2.10;;;7.80;99.90;;;;;;5029594;28;20296;-24
2021/12/08 05:25:46;;;;;;;6.00;1.50;;;7.80;99.90;;;;;;5026939;28;20300;-24
2021/12/08 05:28:21;;;;;;;8.23;2.20;;;7.80;99.90;;;;;;5009353;28;20221;-24
2021/12/08 05:30:57;;;;;;;4.93;1.50;;;7.80;99.90;;;;;;5010009;28;20301;-24
2021/12/08 05:33:25;;;;;;;9.50;1.93;;;7.80;99.90;;;;;;5009951;28;20216;-24
2021/12/08 05:35:53;;;;;;;5.83;1.33;;;7.70;99.90;;;;;;5010588;28;20205;-24
2021/12/08 05:38:20;;;;;;;5.83;1.30;;;7.70;99.90;;;;;;5009134;28;20226;-24
2021/12/08 05:40:56;;;;;;;8.23;2.27;;;7.70;99.90;;;;;;5010780;28;20208;-24
2021/12/08 05:43:27;;;;;;;6.87;1.40;;;7.70;99.90;;;;;;5009288;28;20248;-24
2021/12/08 05:45:56;;;;;;;8.23;1.50;;;7.70;99.90;;;;;;5026232;28;20583;-24
2021/12/08 05:48:23;;;;;;;5.57;1.60;;;7.60;99.90;;;;;;5028410;28;20208;-24
2021/12/08 05:51:00;;;;;;;7.10;1.20;;;7.60;99.90;;;;;;5029334;28;20594;-24
2021/12/08 05:53:27;;;;;;;6.00;1.60;;;7.60;99.90;;;;;;5028906;28;20219;-24
2021/12/08 05:55:55;;;;;;;5.00;1.47;;;7.60;99.90;;;;;;5011591;28;20304;-24
2021/12/08 05:58:25;;;;;;;7.83;1.63;;;7.60;99.90;;;;;;5008792;28;20295;-24
2021/12/08 06:01:13;;;;;;;8.27;1.50;;;7.60;99.90;;;;;;5028528;28;20196;-24
2021/12/08 06:03:47;;;;;;;5.33;1.30;;;7.60;99.90;;;;;;5028912;28;20215;-24
2021/12/08 06:06:18;;;;;;;5.37;1.30;;;7.50;99.90;;;;;;5019231;28;20820;-24
2021/12/08 06:08:45;;;;;;;6.20;1.20;;;7.50;99.90;;;;;;5028415;28;20227;-24
2021/12/08 06:11:14;;;;;;;6.10;1.87;;;7.50;99.90;;;;;;5018723;28;20209;-24
2021/12/08 06:13:45;;;;;;;8.37;1.67;;;7.50;99.90;;;;;;5028881;28;20209;-24
2021/12/08 06:16:19;;;;;;;5.83;1.30;;;7.50;99.90;;;;;;5015398;28;20312;-24
2021/12/08 06:18:48;;;;;;;5.77;1.23;;;7.40;99.90;;;;;;5013076;28;20225;-24
2021/12/08 06:21:22;;;;;;;7.57;1.53;;;7.50;99.90;;;;;;5019636;28;20675;-24
2021/12/08 06:23:53;;;;;;;7.07;1.37;;;7.50;99.90;;;;;;5014154;28;20284;-24
2021/12/08 06:26:26;;;;;;;6.20;1.30;;;7.40;99.90;;;;;;5019102;28;20225;-24
2021/12/08 06:28:55;;;;;;;4.50;1.07;;;7.40;99.90;;;;;;5027549;28;20209;-24
2021/12/08 06:31:25;;;;;;;6.77;1.53;;;7.40;99.90;;;;;;5028878;28;20251;-24
2021/12/08 06:33:53;;;;;;;6.83;1.40;;;7.40;99.90;;;;;;5016568;28;20201;-24
2021/12/08 06:36:33;;;;;;;3.50;1.10;;;7.40;99.90;;;;;;5027370;28;20229;-25
2021/12/08 06:39:03;;;;;;;4.20;1.17;;;7.40;99.90;;;;;;5023996;28;20311;-25
2021/12/08 06:41:37;;;;;;;3.30;1.10;;;7.30;99.90;;;;;;5027066;28;20213;-24
2021/12/08 06:44:11;;;;;;;8.53;1.30;;;7.40;99.90;;;;;;5026650;28;20215;-24
2021/12/08 06:46:39;;;;;;;5.00;1.17;;;7.30;99.90;;;;;;5026728;28;20298;-24
2021/12/08 06:49:09;;;;;;;4.30;1.03;;;7.40;99.90;;;;;;5014573;28;20212;-24
2021/12/08 06:51:47;;;;;;;5.53;1.30;;;7.40;99.90;;;;;;5025729;28;20345;-24
2021/12/08 06:54:26;;;;;;;5.17;0.93;;;7.40;99.90;;;;;;5021370;28;20633;-24
2021/12/08 06:57:03;;;;;;;4.93;1.17;;;7.40;99.90;;;;;;5014880;28;20660;-24
2021/12/08 06:59:40;;;;;;;4.03;1.13;;;7.40;99.90;;;;;;5007420;28;20220;-24
2021/12/08 07:02:22;;;;;;;5.87;1.27;;;7.40;99.90;;;;;;5006541;28;20216;-24
2021/12/08 07:05:11;;;;;;;4.70;1.07;;;7.40;99.90;;;;;;5014929;28;20197;-24
2021/12/08 07:07:42;;;;;;;3.77;0.87;;;7.50;99.90;;;;;;5017629;28;20577;-24
2021/12/08 07:10:20;;;;;;;8.30;1.53;;;7.50;99.90;;;;;;5017584;28;20502;-24
2021/12/08 07:13:00;;;;;;;7.23;1.57;;;7.50;99.90;;;;;;5007230;28;20645;-24
2021/12/08 07:15:42;;;;;;;8.47;1.33;;;7.60;99.90;;;;;;5009696;28;21821;-24
2021/12/08 07:18:16;;;;;;;6.63;1.20;;;7.50;99.90;;;;;;5011538;28;20588;-24
2021/12/08 07:20:50;;;;;;;4.07;1.03;;;7.60;99.90;;;;;;5021823;28;20192;-24
2021/12/08 07:23:36;;;;;;;8.07;1.13;;;7.60;99.90;;;;;;5011554;28;20876;-24
2021/12/08 07:26:09;;;;;;;5.50;1.40;;;7.60;99.90;;;;;;5017724;28;20619;-24
2021/12/08 07:28:40;;;;;;;4.83;1.27;;;7.60;99.90;;;;;;5015993;28;20216;-24
2021/12/08 07:31:12;;;;;;;7.47;1.53;;;7.60;99.90;;;;;;5018096;28;20441;-24
2021/12/08 07:33:42;;;;;;;5.33;1.20;;;7.70;99.90;;;;;;5022423;28;20206;-24
2021/12/08 07:36:16;;;;;;;9.20;1.70;;;7.70;99.90;;;;;;5015409;28;20219;-24
2021/12/08 07:38:49;;;;;;;7.00;1.30;;;7.70;99.90;;;;;;5023722;28;20697;-24
2021/12/08 07:41:22;;;;;;;7.93;1.63;;;7.70;99.90;;;;;;5012961;28;20223;-24
2021/12/08 07:43:52;;;;;;;3.13;1.20;;;7.70;99.90;;;;;;5008992;28;20213;-24
2021/12/08 07:46:33;;;;;;;8.50;1.40;;;7.70;99.90;;;;;;5014394;28;20293;-24
2021/12/08 07:49:08;;;;;;;7.10;1.27;;;7.60;99.90;;;;;;5021811;28;20209;-24
2021/12/08 07:51:42;;;;;;;6.57;1.40;;;7.60;99.90;;;;;;5022480;28;20319;-24
2021/12/08 07:54:12;;;;;;;5.83;1.30;;;7.60;99.90;;;;;;5013533;28;20213;-24
2021/12/08 07:56:48;;;;;;;6.83;1.20;;;7.60;99.90;;;;;;5016102;28;20197;-24
2021/12/08 07:59:18;;;;;;;4.67;1.07;;;7.60;99.90;;;;;;5006529;28;20344;-24
2021/12/08 08:01:52;;;;;;;7.00;1.20;;;7.60;99.90;;;;;;5016747;28;20201;-24
2021/12/08 08:04:23;;;;;;;5.43;1.33;;;7.60;99.90;;;;;;5007247;28;20300;-24
2021/12/08 08:06:55;;;;;;;6.67;1.30;;;7.60;99.90;;;;;;5017639;28;20209;-24
2021/12/08 08:09:35;;;;;;;5.27;0.90;;;7.60;99.90;;;;;;5017890;28;20699;-24
2021/12/08 08:12:08;;;;;;;9.80;1.30;;;7.60;99.90;;;;;;5011455;28;20833;-24
2021/12/08 08:14:42;;;;;;;5.43;1.30;;;7.60;99.90;;;;;;5019290;28;20246;-24
2021/12/08 08:17:16;;;;;;;3.80;1.23;;;7.60;99.90;;;;;;5029866;28;20682;-24
2021/12/08 08:19:48;;;;;;;5.60;1.20;;;7.60;99.90;;;;;;5029436;28;20237;-24
2021/12/08 08:22:25;;;;;;;4.40;1.17;;;7.60;99.90;;;;;;5025288;28;20262;-25
2021/12/08 08:24:58;;;;;;;6.13;1.37;;;7.60;99.90;;;;;;5018575;28;20199;-25
2021/12/08 08:27:27;;;;;;;6.87;1.20;;;7.60;99.90;;;;;;5028718;28;20201;-25
2021/12/08 08:29:56;;;;;;;3.80;1.10;;;7.60;99.90;;;;;;5029454;28;20248;-25
2021/12/08 08:32:33;;;;;;;6.37;1.43;;;7.60;99.90;;;;;;5019534;28;20576;-25
2021/12/08 08:35:31;;;;;;;6.17;1.50;;;7.70;99.90;;;;;;5030059;28;20291;-25
2021/12/08 08:38:00;;;;;;;6.23;1.50;;;7.70;99.90;;;;;;5019304;28;20683;-25
2021/12/08 08:41:00;;;;;;;8.30;1.13;;;7.70;99.90;;;;;;4993950;28;20217;-25
2021/12/08 08:43:28;;;;;;;7.90;1.30;;;7.70;99.90;;;;;;5014324;28;20302;-25
2021/12/08 08:46:02;;;;;;;6.40;1.23;;;7.70;99.90;;;;;;5014234;28;20684;-25
2021/12/08 08:48:44;;;;;;;9.30;1.60;;;7.70;99.90;;;;;;5023313;28;20247;-25
2021/12/08 08:51:26;;;;;;;6.17;1.27;;;7.80;99.90;;;;;;5010447;28;20320;-25
2021/12/08 08:53:57;;;;;;;5.53;1.30;;;7.80;99.90;;;;;;5011853;28;20228;-25
2021/12/08 08:56:29;;;;;;;4.87;1.40;;;7.80;99.90;;;;;;5010542;28;20194;-25
2021/12/08 08:59:04;;;;;;;4.97;1.13;;;7.80;99.90;;;;;;5028680;28;20324;-25
2021/12/08 09:01:37;;;;;;;4.47;1.00;;;7.80;99.90;;;;;;5026324;28;20548;-25
2021/12/08 09:04:18;;;;;;;7.50;1.33;;;7.90;99.90;;;;;;5015515;28;20241;-25
2021/12/08 09:06:51;;;;;;;6.30;1.27;;;7.90;99.90;;;;;;5013456;28;20246;-25
2021/12/08 09:09:22;;;;;;;5.80;1.23;;;7.90;99.90;;;;;;5012974;28;20335;-25
2021/12/08 09:11:55;;;;;;;7.17;1.53;;;7.90;99.90;;;;;;5030019;28;20205;-25
2021/12/08 09:14:30;;;;;;;3.80;1.10;;;7.90;99.90;;;;;;5028565;28;20221;-25
2021/12/08 09:17:24;;;;;;;4.50;1.17;;;7.90;99.90;;;;;;5021675;28;20236;-25
2021/12/08 09:20:11;;;;;;;4.37;0.97;;;7.90;99.90;;;;;;5021652;28;20746;-25
2021/12/08 09:22:59;;;;;;;5.77;1.83;;;8.00;99.90;;;;;;5016008;28;20206;-25
2021/12/08 09:25:55;;;;;;;5.97;1.30;;;7.90;99.90;;;;;;5012361;28;20206;-25
2021/12/08 09:28:42;;;;;;;5.47;1.53;;;8.00;99.90;;;;;;5013349;28;20245;-25
2021/12/08 09:31:12;;;;;;;4.97;1.53;;;8.00;99.90;;;;;;5010574;28;20208;-25
2021/12/08 09:33:51;;;;;;;4.27;1.20;;;8.00;99.90;;;;;;5009453;28;20220;-25
2021/12/08 09:36:23;;;;;;;4.80;1.50;;;8.00;99.90;;;;;;5013833;28;20689;-25
2021/12/08 09:38:59;;;;;;;3.40;0.93;;;8.00;99.90;;;;;;5020066;28;20204;-25
2021/12/08 09:41:37;;;;;;;5.33;1.27;;;8.00;99.90;;;;;;5017984;28;22069;-25
2021/12/08 09:44:13;;;;;;;5.20;1.33;;;8.00;99.90;;;;;;5008915;28;20295;-25
2021/12/08 09:46:46;;;;;;;4.70;1.40;;;8.00;99.90;;;;;;5015100;28;20240;-25
2021/12/08 09:49:18;;;;;;;7.87;1.47;;;8.10;99.90;;;;;;5012336;28;20418;-25
2021/12/08 09:51:48;;;;;;;5.63;1.67;;;8.10;99.90;;;;;;5015985;28;20977;-25
2021/12/08 09:54:18;;;;;;;4.80;1.20;;;8.10;99.90;;;;;;5013132;28;20236;-25
2021/12/08 09:56:49;;;;;;;5.33;1.53;;;8.10;99.90;;;;;;5022385;28;20773;-25
2021/12/08 09:59:17;;;;;;;9.03;2.00;;;8.10;99.90;;;;;;5022636;28;20429;-25
2021/12/08 10:01:45;;;;;;;3.87;1.30;;;8.10;99.90;;;;;;5022194;28;20209;-25
2021/12/08 10:04:17;;;;;;;4.93;1.10;;;8.10;99.90;;;;;;5017702;28;20748;-25
2021/12/08 10:06:49;;;;;;;8.20;1.23;;;8.20;99.90;;;;;;5024393;28;20204;-25
2021/12/08 10:09:22;;;;;;;7.27;1.30;;;8.30;99.90;;;;;;5017769;28;20205;-25
2021/12/08 10:11:52;;;;;;;6.83;1.33;;;8.30;99.90;;;;;;5018087;28;20219;-25
2021/12/08 10:14:21;;;;;;;5.97;1.17;;;8.30;99.90;;;;;;5026622;28;20247;-25
2021/12/08 10:16:53;;;;;;;7.47;1.30;;;8.30;99.90;;;;;;5026801;28;20284;-25
2021/12/08 10:19:22;;;;;;;3.77;1.03;;;8.30;99.90;;;;;;5009080;28;20232;-25
2021/12/08 10:21:52;;;;;;;3.87;1.07;;;8.30;99.90;;;;;;5014551;28;20204;-25
2021/12/08 10:24:27;;;;;;;7.43;1.47;;;8.30;99.90;;;;;;5008327;28;20242;-25
2021/12/08 10:27:10;;;;;;;6.00;1.30;;;8.30;99.90;;;;;;5015431;28;20201;-25
2021/12/08 10:29:42;;;;;;;4.87;1.00;;;8.30;99.90;;;;;;5010126;28;20538;-25
2021/12/08 10:32:16;;;;;;;6.77;1.97;;;8.30;99.90;;;;;;5019254;28;20199;-25
2021/12/08 10:34:53;;;;;;;7.37;1.47;;;8.30;99.90;;;;;;5013397;28;20586;-25
2021/12/08 10:37:20;;;;;;;6.87;1.50;;;8.30;99.90;;;;;;4993102;28;20213;-25
2021/12/08 10:39:52;;;;;;;3.63;0.90;;;8.30;99.90;;;;;;5022332;28;20225;-25
2021/12/08 10:42:33;;;;;;;5.80;1.10;;;8.30;99.90;;;;;;5017238;28;20651;-25
2021/12/08 10:45:11;;;;;;;4.93;1.03;;;8.30;99.90;;;;;;5007845;28;20227;-25
2021/12/08 10:47:47;;;;;;;4.13;1.00;;;8.30;99.90;;;;;;5017540;28;20201;-25
2021/12/08 10:56:08;;;;;;;9.03;1.53;;;8.40;99.90;;;;;;5013358;28;20763;-25
2021/12/08 10:58:43;;;;;;;6.93;1.30;;;8.40;99.90;;;;;;5009730;28;20214;-25
2021/12/08 11:01:16;;;;;;;4.60;1.20;;;8.40;99.90;;;;;;5009253;28;20233;-25
2021/12/08 11:03:49;;;;;;;5.73;1.20;;;8.40;99.90;;;;;;5009313;28;20699;-25
2021/12/08 11:06:19;;;;;;;5.20;1.40;;;8.40;99.90;;;;;;5005515;28;20682;-25
2021/12/08 11:08:48;;;;;;;4.27;1.37;;;8.40;99.90;;;;;;5017285;28;20310;-25
2021/12/08 11:11:22;;;;;;;7.47;1.07;;;8.40;99.90;;;;;;5014187;28;20200;-25
2021/12/08 11:13:55;;;;;;;4.43;1.00;;;8.30;99.90;;;;;;5013071;28;20212;-25
2021/12/08 11:16:32;;;;;;;3.80;1.07;;;8.40;99.90;;;;;;5026019;28;20212;-25
2021/12/08 11:19:10;;;;;;;6.33;1.40;;;8.40;99.90;;;;;;5009650;28;20209;-25
2021/12/08 11:21:40;;;;;;;5.13;1.20;;;8.30;99.90;;;;;;5015679;28;20220;-25
2021/12/08 11:24:18;;;;;;;4.90;1.50;;;8.40;99.90;;;;;;5022647;28;20200;-26
2021/12/08 11:26:49;;;;;;;3.37;1.07;;;8.40;99.90;;;;;;5024998;28;20201;-26
2021/12/08 11:29:20;;;;;;;3.03;0.97;;;8.40;99.90;;;;;;5021730;28;20671;-26
2021/12/08 11:32:04;;;;;;;4.73;1.50;;;8.40;99.90;;;;;;5015736;28;20629;-26
2021/12/08 11:34:44;;;;;;;3.50;1.03;;;8.40;99.90;;;;;;5023939;28;20193;-26
2021/12/08 11:37:32;;;;;;;4.53;1.30;;;8.40;99.90;;;;;;5013947;28;20201;-26
2021/12/08 11:40:01;;;;;;;5.77;1.17;;;8.40;99.90;;;;;;5007112;28;20221;-25
2021/12/08 11:42:33;;;;;;;4.87;1.37;;;8.40;99.90;;;;;;5011702;28;20807;-25
2021/12/08 11:45:12;;;;;;;5.60;1.60;;;8.40;99.90;;;;;;5013480;28;20289;-25
2021/12/08 11:47:41;;;;;;;5.17;1.20;;;8.50;99.90;;;;;;5017638;28;20216;-26
2021/12/08 11:50:21;;;;;;;2.57;1.07;;;8.50;99.90;;;;;;5021035;28;20200;-26
2021/12/08 11:52:53;;;;;;;4.10;1.53;;;8.50;99.90;;;;;;5015913;28;20296;-26
2021/12/08 11:55:26;;;;;;;6.50;1.63;;;8.50;99.90;;;;;;5018420;28;20220;-26
2021/12/08 11:57:58;;;;;;;3.73;1.50;;;8.50;99.90;;;;;;5011737;28;20231;-26
2021/12/08 12:00:33;;;;;;;4.73;1.40;;;8.60;99.90;;;;;;4994739;28;20256;-26
2021/12/08 12:03:09;;;;;;;4.77;1.50;;;8.60;99.90;;;;;;5018400;28;20204;-26
2021/12/08 12:05:48;;;;;;;6.13;1.50;;;8.60;99.90;;;;;;5028410;28;20209;-25
2021/12/08 12:08:20;;;;;;;5.00;1.20;;;8.60;99.90;;;;;;5021260;28;20225;-26
2021/12/08 12:10:56;;;;;;;4.10;1.50;;;8.60;99.90;;;;;;5020583;28;20205;-26
2021/12/08 12:13:25;;;;;;;5.27;1.37;;;8.70;99.90;;;;;;5014502;28;20205;-26
2021/12/08 12:15:56;;;;;;;5.47;1.40;;;8.60;99.90;;;;;;5020944;28;20216;-26
2021/12/08 12:18:31;;;;;;;4.73;1.47;;;8.70;99.90;;;;;;5015744;28;20258;-26
2021/12/08 12:21:24;;;;;;;7.47;1.77;;;8.70;99.90;;;;;;5011409;28;20228;-25
2021/12/08 12:24:13;;;;;;;6.77;1.80;;;8.70;99.90;;;;;;5017912;28;20264;-26
2021/12/08 12:26:59;;;;;;;5.10;1.73;;;8.70;99.90;;;;;;5025372;28;20603;-26
2021/12/08 12:29:45;;;;;;;4.93;1.33;;;8.70;99.90;;;;;;5019797;28;20267;-26
2021/12/08 12:32:32;;;;;;;6.13;1.50;;;8.70;99.90;;;;;;5014932;28;20205;-26
2021/12/08 12:35:19;;;;;;;4.53;1.23;;;8.70;99.90;;;;;;5010489;28;20205;-25
2021/12/08 12:37:49;;;;;;;7.90;1.40;;;8.70;99.90;;;;;;5020810;28;20424;-26
2021/12/08 12:40:19;;;;;;;4.47;1.30;;;8.70;99.90;;;;;;5010978;28;20224;-25
2021/12/08 12:42:54;;;;;;;6.13;1.40;;;8.70;99.90;;;;;;5017106;28;20558;-26
2021/12/08 12:45:26;;;;;;;3.17;1.00;;;8.80;99.90;;;;;;5017969;28;20201;-25
2021/12/08 12:48:20;;;;;;;4.10;1.30;;;8.80;99.90;;;;;;5016734;28;20197;-26
2021/12/08 12:51:06;;;;;;;3.50;1.20;;;8.80;99.90;;;;;;5024579;28;20328;-25
2021/12/08 12:53:35;;;;;;;4.03;1.30;;;8.80;99.90;;;;;;5022399;28;20213;-26
2021/12/08 12:56:03;;;;;;;3.97;1.13;;;8.80;99.90;;;;;;5011760;28;20206;-26
2021/12/08 12:58:45;;;;;;;5.83;1.33;;;8.80;99.90;;;;;;5021890;28;20213;-25
2021/12/08 13:01:24;;;;;;;5.37;1.27;;;8.80;99.90;;;;;;5014611;28;20727;-25
2021/12/08 13:04:03;;;;;;;4.90;1.53;;;8.80;99.90;;;;;;5014929;28;20460;-25
2021/12/08 13:06:53;;;;;;;5.80;1.20;;;8.90;99.90;;;;;;5012592;28;20270;-26
2021/12/08 13:09:47;;;;;;;4.93;1.27;;;8.80;99.90;;;;;;5011746;28;20294;-25
2021/12/08 13:12:34;;;;;;;5.00;1.20;;;8.80;99.90;;;;;;5012528;28;20763;-25
2021/12/08 13:15:07;;;;;;;5.33;1.40;;;8.80;99.90;;;;;;5021774;28;20723;-25
2021/12/08 13:17:34;;;;;;;3.50;1.13;;;8.90;99.90;;;;;;5018815;28;20197;-25
2021/12/08 13:20:10;;;;;;;6.70;1.50;;;8.90;99.90;;;;;;5015086;28;20324;-26
2021/12/08 13:22:49;;;;;;;5.60;1.10;;;8.90;99.90;;;;;;5021988;28;20193;-26
2021/12/08 13:25:32;;;;;;;5.80;1.37;;;8.90;99.90;;;;;;5009821;28;20544;-26
2021/12/08 13:28:21;;;;;;;5.73;1.90;;;8.90;99.90;;;;;;5020446;28;20574;-26
2021/12/08 13:30:58;;;;;;;4.83;1.53;;;8.90;99.90;;;;;;5025150;28;20201;-26
2021/12/08 13:33:34;;;;;;;4.70;1.30;;;8.90;99.90;;;;;;5022410;28;20228;-25
2021/12/08 13:36:31;;;;;;;6.73;1.50;;;8.90;99.90;;;;;;5011137;28;20204;-26
2021/12/08 13:38:58;;;;;;;3.10;1.07;;;8.90;99.90;;;;;;5011163;28;20293;-26
2021/12/08 13:41:36;;;;;;;6.60;1.30;;;8.90;99.90;;;;;;5015595;28;20725;-26
2021/12/08 13:44:26;;;;;;;7.33;1.40;;;8.90;99.90;;;;;;5008298;28;20213;-25
2021/12/08 13:46:56;;;;;;;4.90;1.27;;;9.00;99.90;;;;;;5018598;28;20209;-26
2021/12/08 13:49:27;;;;;;;10.23;1.80;;;9.00;99.90;;;;;;5015783;28;20296;-26
2021/12/08 13:52:09;;;;;;;5.33;1.40;;;8.90;99.90;;;;;;5008955;28;20340;-25
2021/12/08 13:54:39;;;;;;;7.07;1.40;;;9.00;99.90;;;;;;5016850;28;20213;-26
2021/12/08 13:57:43;;;;;;;5.27;1.23;;;9.00;99.90;;;;;;5023249;28;20231;-26
2021/12/08 14:00:16;;;;;;;4.13;1.30;;;9.00;99.90;;;;;;5009147;28;20224;-26
2021/12/08 14:02:50;;;;;;;7.43;1.40;;;9.00;99.90;;;;;;5008294;28;20220;-25
2021/12/08 14:05:29;;;;;;;9.10;1.80;;;9.00;99.90;;;;;;5013682;28;20247;-25
2021/12/08 14:08:29;;;;;;;5.23;1.40;;;9.00;99.90;;;;;;5021482;28;20651;-26
2021/12/08 14:11:10;;;;;;;7.50;1.83;;;9.00;99.90;;;;;;5016607;28;20221;-26
2021/12/08 14:13:41;;;;;;;3.27;1.70;;;9.00;99.90;;;;;;5006031;28;20216;-26
2021/12/08 14:16:14;;;;;;;5.80;1.30;;;9.00;99.90;;;;;;5007400;28;20202;-26
2021/12/08 14:18:46;;;;;;;4.67;1.20;;;9.00;99.90;;;;;;5019811;28;20213;-25
2021/12/08 14:21:35;;;;;;;6.27;1.63;;;9.00;99.90;;;;;;5016140;28;20229;-25
2021/12/08 14:24:23;;;;;;;6.67;1.40;;;9.00;99.90;;;;;;5018660;28;20199;-33